URO661 EGHH-EDFH
Flight info
| Callsign | URO661 |
|---|---|
| Flight time | 1h 0m |
| Altitude | 37000 |
| Route | SAM M140 DVR/N0392F230 L9 KONAN UL607 MATUG DCT ROPUV ROPUV4A |
| Aircraft | A346/H-SDE2E3FGHIJ3J4J5M1RWXY/LB1D1 |
Departure
| Time | 2026-05-07 19:23 |
|---|---|
| Airport | Bournemouth Airport (EGHH) |
Arrival
| Time | 2026-05-07 20:23 |
|---|---|
| Airport | Frankfurt-Hahn Airport (EDFH) |
| Time | Latitude | Longitude | Altitude | Speed | Heading |
|---|---|---|---|---|---|
| 2026-05-07 18:31 | 50.77773 | -1.84093 | 54 ft | 0 kts | 284° |
| 2026-05-07 19:14 | 50.77773 | -1.84097 | 54 ft | 1 kts | 285° |
| 2026-05-07 19:14 | 50.77781 | -1.84124 | 52 ft | 4 kts | 298° |
| 2026-05-07 19:14 | 50.77801 | -1.84179 | 51 ft | 7 kts | 301° |
| 2026-05-07 19:14 | 50.77833 | -1.84263 | 53 ft | 5 kts | 301° |
| 2026-05-07 19:15 | 50.77835 | -1.84269 | 49 ft | 0 kts | 301° |
| 2026-05-07 19:17 | 50.77839 | -1.84277 | 50 ft | 2 kts | 301° |
| 2026-05-07 19:17 | 50.77853 | -1.84316 | 54 ft | 6 kts | 301° |
| 2026-05-07 19:17 | 50.77879 | -1.84386 | 49 ft | 9 kts | 301° |
| 2026-05-07 19:17 | 50.77923 | -1.84503 | 51 ft | 15 kts | 300° |
| 2026-05-07 19:18 | 50.77938 | -1.84673 | 49 ft | 17 kts | 257° |
| 2026-05-07 19:18 | 50.77904 | -1.84874 | 52 ft | 22 kts | 255° |
| 2026-05-07 19:18 | 50.77860 | -1.85134 | 57 ft | 25 kts | 255° |
| 2026-05-07 19:18 | 50.77814 | -1.85416 | 52 ft | 27 kts | 255° |
| 2026-05-07 19:19 | 50.77765 | -1.85655 | 51 ft | 13 kts | 229° |
| 2026-05-07 19:19 | 50.77724 | -1.85726 | 51 ft | 7 kts | 262° |
| 2026-05-07 19:19 | 50.77737 | -1.85749 | 53 ft | 2 kts | 17° |
| 2026-05-07 19:19 | 50.77758 | -1.85714 | 52 ft | 6 kts | 57° |
| 2026-05-07 19:20 | 50.77776 | -1.85638 | 54 ft | 4 kts | 76° |
| 2026-05-07 19:20 | 50.77778 | -1.85632 | 54 ft | 0 kts | 75° |
| 2026-05-07 19:22 | 50.77806 | -1.85464 | 51 ft | 56 kts | 75° |
| 2026-05-07 19:23 | 50.77991 | -1.84348 | 50 ft | 149 kts | 75° |
| 2026-05-07 19:23 | 50.78310 | -1.82517 | 579 ft | 179 kts | 76° |
| 2026-05-07 19:23 | 50.78613 | -1.80619 | 1642 ft | 171 kts | 77° |
| 2026-05-07 19:23 | 50.79024 | -1.78842 | 2454 ft | 179 kts | 66° |
| 2026-05-07 19:24 | 50.79712 | -1.77078 | 3098 ft | 198 kts | 57° |
| 2026-05-07 19:24 | 50.80519 | -1.75196 | 3752 ft | 214 kts | 59° |
| 2026-05-07 19:24 | 50.81339 | -1.73087 | 4372 ft | 234 kts | 60° |
| 2026-05-07 19:24 | 50.82225 | -1.70753 | 4913 ft | 261 kts | 60° |
| 2026-05-07 19:25 | 50.83168 | -1.68220 | 5783 ft | 270 kts | 60° |
| 2026-05-07 19:25 | 50.84123 | -1.65637 | 6858 ft | 275 kts | 59° |
| 2026-05-07 19:25 | 50.85104 | -1.62984 | 7819 ft | 282 kts | 59° |
| 2026-05-07 19:25 | 50.86105 | -1.60275 | 8771 ft | 289 kts | 59° |
| 2026-05-07 19:26 | 50.87132 | -1.57487 | 9529 ft | 296 kts | 59° |
| 2026-05-07 19:26 | 50.88174 | -1.54647 | 9946 ft | 300 kts | 59° |
| 2026-05-07 19:26 | 50.89228 | -1.51775 | 10047 ft | 301 kts | 59° |
| 2026-05-07 19:26 | 50.90279 | -1.48903 | 10051 ft | 301 kts | 59° |
| 2026-05-07 19:27 | 50.91330 | -1.46027 | 10051 ft | 302 kts | 59° |
| 2026-05-07 19:27 | 50.92400 | -1.43094 | 10313 ft | 314 kts | 59° |
| 2026-05-07 19:27 | 50.93524 | -1.40012 | 10885 ft | 331 kts | 59° |
| 2026-05-07 19:27 | 50.94626 | -1.36685 | 11374 ft | 350 kts | 69° |
| 2026-05-07 19:28 | 50.95090 | -1.32813 | 11817 ft | 367 kts | 91° |
| 2026-05-07 19:28 | 50.94689 | -1.28770 | 12500 ft | 375 kts | 106° |
| 2026-05-07 19:28 | 50.93979 | -1.24714 | 13530 ft | 377 kts | 108° |
| 2026-05-07 19:28 | 50.93268 | -1.20745 | 14430 ft | 380 kts | 108° |
| 2026-05-07 19:29 | 50.92550 | -1.16683 | 15258 ft | 385 kts | 107° |
| 2026-05-07 19:29 | 50.91824 | -1.12503 | 16062 ft | 391 kts | 107° |
| 2026-05-07 19:29 | 50.91113 | -1.08366 | 16700 ft | 396 kts | 107° |
| 2026-05-07 19:29 | 50.90390 | -1.04133 | 17029 ft | 399 kts | 107° |
| 2026-05-07 19:30 | 50.89668 | -0.99895 | 17049 ft | 399 kts | 107° |
| 2026-05-07 19:30 | 50.88945 | -0.95649 | 17056 ft | 399 kts | 107° |
| 2026-05-07 19:30 | 50.88216 | -0.91395 | 17057 ft | 399 kts | 107° |
| 2026-05-07 19:30 | 50.87489 | -0.87158 | 17061 ft | 399 kts | 107° |
| 2026-05-07 19:31 | 50.86763 | -0.82916 | 17056 ft | 399 kts | 106° |
| 2026-05-07 19:31 | 50.86435 | -0.78547 | 17026 ft | 402 kts | 88° |
| 2026-05-07 19:31 | 50.87050 | -0.74216 | 17073 ft | 408 kts | 68° |
| 2026-05-07 19:31 | 50.88591 | -0.70393 | 17573 ft | 417 kts | 48° |
| 2026-05-07 19:32 | 50.90596 | -0.67109 | 18616 ft | 414 kts | 45° |
| 2026-05-07 19:32 | 50.92627 | -0.63856 | 19384 ft | 417 kts | 45° |
| 2026-05-07 19:32 | 50.94677 | -0.60555 | 20043 ft | 423 kts | 45° |
| 2026-05-07 19:32 | 50.96745 | -0.57192 | 20688 ft | 428 kts | 45° |
| 2026-05-07 19:33 | 50.98831 | -0.53775 | 21381 ft | 432 kts | 45° |
| 2026-05-07 19:33 | 51.00924 | -0.50328 | 22070 ft | 436 kts | 46° |
| 2026-05-07 19:33 | 51.03038 | -0.46835 | 22753 ft | 441 kts | 46° |
| 2026-05-07 19:33 | 51.05178 | -0.43291 | 23436 ft | 445 kts | 46° |
| 2026-05-07 19:34 | 51.07331 | -0.39716 | 24027 ft | 450 kts | 46° |
| 2026-05-07 19:34 | 51.09506 | -0.36099 | 24584 ft | 454 kts | 46° |
| 2026-05-07 19:34 | 51.11692 | -0.32458 | 25144 ft | 457 kts | 46° |
| 2026-05-07 19:34 | 51.13903 | -0.28770 | 25722 ft | 461 kts | 46° |
| 2026-05-07 19:35 | 51.16137 | -0.25039 | 26269 ft | 465 kts | 46° |
| 2026-05-07 19:35 | 51.18378 | -0.21288 | 26818 ft | 468 kts | 46° |
| 2026-05-07 19:35 | 51.20631 | -0.17513 | 27353 ft | 472 kts | 46° |
| 2026-05-07 19:35 | 51.22904 | -0.13699 | 27902 ft | 476 kts | 46° |
| 2026-05-07 19:36 | 51.25194 | -0.09848 | 28404 ft | 479 kts | 46° |
| 2026-05-07 19:36 | 51.27493 | -0.05959 | 28972 ft | 482 kts | 47° |
| 2026-05-07 19:36 | 51.29504 | -0.01652 | 29659 ft | 481 kts | 59° |
| 2026-05-07 19:36 | 51.30950 | 0.03130 | 30330 ft | 478 kts | 70° |
| 2026-05-07 19:37 | 51.31818 | 0.08236 | 30947 ft | 475 kts | 81° |
| 2026-05-07 19:37 | 51.32106 | 0.13495 | 31514 ft | 473 kts | 91° |
| 2026-05-07 19:37 | 51.31850 | 0.18723 | 32065 ft | 471 kts | 99° |
| 2026-05-07 19:37 | 51.31374 | 0.23918 | 32633 ft | 470 kts | 101° |
| 2026-05-07 19:38 | 51.30858 | 0.29091 | 33167 ft | 470 kts | 101° |
| 2026-05-07 19:38 | 51.30333 | 0.34284 | 33733 ft | 469 kts | 101° |
| 2026-05-07 19:38 | 51.29819 | 0.39427 | 34226 ft | 469 kts | 101° |
| 2026-05-07 19:38 | 51.29308 | 0.44582 | 34670 ft | 469 kts | 101° |
| 2026-05-07 19:39 | 51.28797 | 0.49764 | 34861 ft | 469 kts | 101° |
| 2026-05-07 19:39 | 51.28288 | 0.54930 | 34873 ft | 470 kts | 101° |
| 2026-05-07 19:39 | 51.27269 | 0.65253 | 34910 ft | 470 kts | 101° |
| 2026-05-07 19:40 | 51.26242 | 0.75588 | 34961 ft | 470 kts | 101° |
| 2026-05-07 19:40 | 51.25208 | 0.85905 | 35013 ft | 470 kts | 101° |
| 2026-05-07 19:41 | 51.24163 | 0.96228 | 35078 ft | 470 kts | 101° |
| 2026-05-07 19:41 | 51.23057 | 1.06560 | 35328 ft | 475 kts | 103° |
| 2026-05-07 19:42 | 51.22390 | 1.11731 | 35823 ft | 473 kts | 103° |
| 2026-05-07 19:42 | 51.21706 | 1.16867 | 36277 ft | 473 kts | 104° |
| 2026-05-07 19:42 | 51.21016 | 1.22015 | 36592 ft | 475 kts | 104° |
| 2026-05-07 19:42 | 51.20325 | 1.27191 | 36872 ft | 478 kts | 104° |
| 2026-05-07 19:43 | 51.19633 | 1.32394 | 37083 ft | 480 kts | 104° |
| 2026-05-07 19:43 | 51.18938 | 1.37621 | 37079 ft | 481 kts | 104° |
| 2026-05-07 19:43 | 51.17545 | 1.48075 | 37095 ft | 482 kts | 104° |
| 2026-05-07 19:44 | 51.16154 | 1.58470 | 37085 ft | 482 kts | 104° |
| 2026-05-07 19:44 | 51.14737 | 1.68985 | 37078 ft | 482 kts | 104° |
| 2026-05-07 19:45 | 51.13320 | 1.79425 | 37086 ft | 482 kts | 104° |
| 2026-05-07 19:45 | 51.11892 | 1.89873 | 37074 ft | 482 kts | 104° |
| 2026-05-07 19:46 | 51.10467 | 2.00219 | 37089 ft | 482 kts | 104° |
| 2026-05-07 19:46 | 51.09011 | 2.10717 | 37077 ft | 482 kts | 104° |
| 2026-05-07 19:47 | 51.07565 | 2.21077 | 37081 ft | 482 kts | 104° |
| 2026-05-07 19:47 | 51.06091 | 2.31560 | 37088 ft | 482 kts | 104° |
| 2026-05-07 19:48 | 51.04616 | 2.41971 | 37082 ft | 482 kts | 104° |
| 2026-05-07 19:48 | 51.03133 | 2.52379 | 37088 ft | 482 kts | 104° |
| 2026-05-07 19:49 | 51.01635 | 2.62812 | 37091 ft | 482 kts | 104° |
| 2026-05-07 19:49 | 51.00133 | 2.73200 | 37087 ft | 482 kts | 104° |
| 2026-05-07 19:50 | 50.98879 | 2.81823 | 37087 ft | 482 kts | 104° |
| 2026-05-07 19:50 | 50.97361 | 2.92195 | 37086 ft | 482 kts | 104° |
| 2026-05-07 19:51 | 50.95835 | 3.02555 | 37084 ft | 482 kts | 105° |
| 2026-05-07 19:51 | 50.94301 | 3.12902 | 37080 ft | 482 kts | 105° |
| 2026-05-07 19:52 | 50.92756 | 3.23254 | 37085 ft | 482 kts | 105° |
| 2026-05-07 19:52 | 50.91201 | 3.33598 | 37075 ft | 482 kts | 105° |
| 2026-05-07 19:53 | 50.89637 | 3.43935 | 37077 ft | 482 kts | 105° |
| 2026-05-07 19:53 | 50.88064 | 3.54275 | 37080 ft | 482 kts | 105° |
| 2026-05-07 19:54 | 50.86483 | 3.64591 | 37076 ft | 482 kts | 105° |
| 2026-05-07 19:54 | 50.84894 | 3.74900 | 37079 ft | 482 kts | 105° |
| 2026-05-07 19:55 | 50.83289 | 3.85241 | 37079 ft | 481 kts | 105° |
| 2026-05-07 19:55 | 50.81682 | 3.95527 | 37086 ft | 481 kts | 105° |
| 2026-05-07 19:56 | 50.80067 | 4.05805 | 36584 ft | 483 kts | 105° |
| 2026-05-07 19:56 | 50.79249 | 4.10978 | 35944 ft | 483 kts | 105° |
| 2026-05-07 19:56 | 50.78433 | 4.16127 | 35327 ft | 483 kts | 105° |
| 2026-05-07 19:57 | 50.77612 | 4.21290 | 34719 ft | 483 kts | 105° |
| 2026-05-07 19:57 | 50.76790 | 4.26444 | 34126 ft | 483 kts | 105° |
| 2026-05-07 19:57 | 50.75965 | 4.31605 | 33448 ft | 483 kts | 105° |
| 2026-05-07 19:57 | 50.75141 | 4.36744 | 32761 ft | 482 kts | 105° |
| 2026-05-07 19:58 | 50.74314 | 4.41883 | 32086 ft | 482 kts | 105° |
| 2026-05-07 19:58 | 50.73487 | 4.47012 | 31430 ft | 481 kts | 105° |
| 2026-05-07 19:58 | 50.72659 | 4.52125 | 30803 ft | 480 kts | 105° |
| 2026-05-07 19:58 | 50.71830 | 4.57234 | 30184 ft | 479 kts | 105° |
| 2026-05-07 19:59 | 50.70998 | 4.62339 | 29449 ft | 478 kts | 105° |
| 2026-05-07 19:59 | 50.70168 | 4.67418 | 28679 ft | 478 kts | 105° |
| 2026-05-07 19:59 | 50.69336 | 4.72492 | 28038 ft | 477 kts | 105° |
| 2026-05-07 19:59 | 50.68502 | 4.77568 | 27315 ft | 476 kts | 105° |
| 2026-05-07 20:00 | 50.67670 | 4.82613 | 26606 ft | 475 kts | 105° |
| 2026-05-07 20:00 | 50.66837 | 4.87648 | 25915 ft | 473 kts | 106° |
| 2026-05-07 20:00 | 50.65956 | 4.92651 | 25240 ft | 471 kts | 108° |
| 2026-05-07 20:00 | 50.64927 | 4.97543 | 24571 ft | 468 kts | 113° |
| 2026-05-07 20:01 | 50.63583 | 5.02181 | 23934 ft | 465 kts | 117° |
| 2026-05-07 20:01 | 50.62067 | 5.06668 | 23221 ft | 461 kts | 124° |
| 2026-05-07 20:01 | 50.60062 | 5.10568 | 22474 ft | 456 kts | 135° |
| 2026-05-07 20:01 | 50.58014 | 5.14354 | 21744 ft | 455 kts | 126° |
| 2026-05-07 20:02 | 50.56421 | 5.18637 | 21131 ft | 451 kts | 119° |
| 2026-05-07 20:02 | 50.54996 | 5.23011 | 20490 ft | 447 kts | 118° |
| 2026-05-07 20:02 | 50.53609 | 5.27371 | 19875 ft | 443 kts | 117° |
| 2026-05-07 20:02 | 50.52238 | 5.31689 | 19263 ft | 439 kts | 117° |
| 2026-05-07 20:03 | 50.50958 | 5.36021 | 18654 ft | 436 kts | 110° |
| 2026-05-07 20:03 | 50.50338 | 5.40639 | 18328 ft | 426 kts | 98° |
| 2026-05-07 20:03 | 50.50009 | 5.45213 | 18041 ft | 414 kts | 96° |
| 2026-05-07 20:03 | 50.49716 | 5.49665 | 17778 ft | 406 kts | 96° |
| 2026-05-07 20:04 | 50.49397 | 5.54064 | 17511 ft | 405 kts | 97° |
| 2026-05-07 20:04 | 50.49046 | 5.58447 | 17241 ft | 403 kts | 98° |
| 2026-05-07 20:04 | 50.48672 | 5.62807 | 16971 ft | 401 kts | 98° |
| 2026-05-07 20:04 | 50.48284 | 5.67144 | 16714 ft | 399 kts | 98° |
| 2026-05-07 20:05 | 50.47889 | 5.71461 | 16447 ft | 398 kts | 99° |
| 2026-05-07 20:05 | 50.47490 | 5.75760 | 16178 ft | 396 kts | 99° |
| 2026-05-07 20:05 | 50.47091 | 5.80038 | 15932 ft | 395 kts | 99° |
| 2026-05-07 20:05 | 50.46691 | 5.84301 | 15675 ft | 393 kts | 99° |
| 2026-05-07 20:06 | 50.46290 | 5.88550 | 15413 ft | 392 kts | 99° |
| 2026-05-07 20:06 | 50.45889 | 5.92777 | 15161 ft | 391 kts | 99° |
| 2026-05-07 20:06 | 50.45488 | 5.96997 | 14930 ft | 389 kts | 99° |
| 2026-05-07 20:06 | 50.45089 | 6.01175 | 14674 ft | 388 kts | 99° |
| 2026-05-07 20:07 | 50.44687 | 6.05364 | 14428 ft | 386 kts | 99° |
| 2026-05-07 20:07 | 50.44270 | 6.09522 | 14181 ft | 385 kts | 101° |
| 2026-05-07 20:07 | 50.43755 | 6.13640 | 13945 ft | 383 kts | 103° |
| 2026-05-07 20:07 | 50.43208 | 6.17719 | 13683 ft | 382 kts | 103° |
| 2026-05-07 20:08 | 50.42659 | 6.21792 | 13414 ft | 380 kts | 103° |
| 2026-05-07 20:08 | 50.42116 | 6.25851 | 13146 ft | 378 kts | 103° |
| 2026-05-07 20:08 | 50.41580 | 6.29881 | 12881 ft | 377 kts | 103° |
| 2026-05-07 20:08 | 50.41048 | 6.33904 | 12619 ft | 375 kts | 103° |
| 2026-05-07 20:09 | 50.40519 | 6.37915 | 12361 ft | 374 kts | 103° |
| 2026-05-07 20:09 | 50.39992 | 6.41903 | 12104 ft | 372 kts | 102° |
| 2026-05-07 20:09 | 50.39467 | 6.45871 | 11841 ft | 371 kts | 102° |
| 2026-05-07 20:10 | 50.38417 | 6.53768 | 11342 ft | 368 kts | 102° |
| 2026-05-07 20:10 | 50.37893 | 6.57701 | 11078 ft | 367 kts | 102° |
| 2026-05-07 20:10 | 50.37370 | 6.61621 | 10832 ft | 365 kts | 102° |
| 2026-05-07 20:10 | 50.36854 | 6.65473 | 10521 ft | 358 kts | 102° |
| 2026-05-07 20:11 | 50.36346 | 6.69256 | 10183 ft | 351 kts | 102° |
| 2026-05-07 20:11 | 50.35843 | 6.72992 | 9959 ft | 351 kts | 102° |
| 2026-05-07 20:11 | 50.35337 | 6.76745 | 9824 ft | 351 kts | 102° |
| 2026-05-07 20:11 | 50.34831 | 6.80483 | 9691 ft | 350 kts | 102° |
| 2026-05-07 20:12 | 50.34322 | 6.84238 | 9554 ft | 349 kts | 102° |
| 2026-05-07 20:12 | 50.33816 | 6.87962 | 9416 ft | 349 kts | 102° |
| 2026-05-07 20:12 | 50.33311 | 6.91667 | 9283 ft | 348 kts | 102° |
| 2026-05-07 20:12 | 50.32804 | 6.95368 | 9148 ft | 346 kts | 102° |
| 2026-05-07 20:13 | 50.32299 | 6.99046 | 9011 ft | 345 kts | 102° |
| 2026-05-07 20:13 | 50.31797 | 7.02701 | 8888 ft | 344 kts | 102° |
| 2026-05-07 20:13 | 50.31292 | 7.06372 | 8734 ft | 343 kts | 102° |
| 2026-05-07 20:13 | 50.30785 | 7.10042 | 8620 ft | 343 kts | 102° |
| 2026-05-07 20:14 | 50.30283 | 7.13675 | 8495 ft | 342 kts | 102° |
| 2026-05-07 20:14 | 50.29777 | 7.17318 | 8350 ft | 341 kts | 102° |
| 2026-05-07 20:14 | 50.29273 | 7.20942 | 8234 ft | 341 kts | 102° |
| 2026-05-07 20:14 | 50.28768 | 7.24563 | 8101 ft | 340 kts | 102° |
| 2026-05-07 20:15 | 50.28263 | 7.28176 | 7967 ft | 339 kts | 102° |
| 2026-05-07 20:15 | 50.27761 | 7.31751 | 7740 ft | 331 kts | 102° |
| 2026-05-07 20:15 | 50.27272 | 7.35227 | 7479 ft | 323 kts | 102° |
| 2026-05-07 20:15 | 50.26795 | 7.38618 | 7220 ft | 315 kts | 102° |
| 2026-05-07 20:16 | 50.26230 | 7.41886 | 6950 ft | 308 kts | 111° |
| 2026-05-07 20:16 | 50.25274 | 7.44842 | 6688 ft | 301 kts | 122° |
| 2026-05-07 20:16 | 50.24155 | 7.47579 | 6425 ft | 295 kts | 126° |
| 2026-05-07 20:16 | 50.22695 | 7.49755 | 6112 ft | 288 kts | 151° |
| 2026-05-07 20:17 | 50.20825 | 7.50667 | 5807 ft | 281 kts | 178° |
| 2026-05-07 20:17 | 50.18930 | 7.50240 | 5529 ft | 274 kts | 201° |
| 2026-05-07 20:17 | 50.17262 | 7.48869 | 5234 ft | 270 kts | 214° |
| 2026-05-07 20:17 | 50.15937 | 7.47420 | 5073 ft | 268 kts | 216° |
| 2026-05-07 20:18 | 50.14517 | 7.45865 | 5064 ft | 257 kts | 214° |
| 2026-05-07 20:18 | 50.13071 | 7.44358 | 5060 ft | 243 kts | 213° |
| 2026-05-07 20:18 | 50.11689 | 7.42973 | 5055 ft | 229 kts | 213° |
| 2026-05-07 20:18 | 50.10377 | 7.41682 | 5000 ft | 219 kts | 212° |
| 2026-05-07 20:19 | 50.09091 | 7.40420 | 4750 ft | 219 kts | 212° |
| 2026-05-07 20:19 | 50.07825 | 7.39178 | 4496 ft | 210 kts | 212° |
| 2026-05-07 20:19 | 50.06614 | 7.37986 | 4198 ft | 201 kts | 212° |
| 2026-05-07 20:19 | 50.05457 | 7.36846 | 3901 ft | 191 kts | 212° |
| 2026-05-07 20:20 | 50.04371 | 7.35775 | 3625 ft | 179 kts | 212° |
| 2026-05-07 20:20 | 50.03355 | 7.34772 | 3384 ft | 166 kts | 212° |
| 2026-05-07 20:20 | 50.02413 | 7.33842 | 3172 ft | 159 kts | 212° |
| 2026-05-07 20:20 | 50.01482 | 7.32924 | 2976 ft | 158 kts | 211° |
| 2026-05-07 20:21 | 50.00559 | 7.32013 | 2789 ft | 157 kts | 211° |
| 2026-05-07 20:21 | 49.99641 | 7.31105 | 2558 ft | 156 kts | 211° |
| 2026-05-07 20:21 | 49.98724 | 7.30200 | 2353 ft | 155 kts | 212° |
| 2026-05-07 20:21 | 49.97816 | 7.29303 | 2123 ft | 154 kts | 212° |
| 2026-05-07 20:22 | 49.96918 | 7.28415 | 1893 ft | 152 kts | 212° |
| 2026-05-07 20:22 | 49.96027 | 7.27532 | 1710 ft | 151 kts | 213° |
| 2026-05-07 20:22 | 49.95155 | 7.26671 | 1625 ft | 133 kts | 212° |
| 2026-05-07 20:22 | 49.94526 | 7.26054 | 1633 ft | 91 kts | 212° |
| 2026-05-07 20:23 | 49.94027 | 7.25562 | 1644 ft | 80 kts | 212° |
| 2026-05-07 20:23 | 49.93585 | 7.25127 | 1652 ft | 67 kts | 212° |
| 2026-05-07 20:23 | 49.93369 | 7.24912 | 1651 ft | 21 kts | 212° |
| 2026-05-07 20:23 | 49.93272 | 7.24938 | 1648 ft | 18 kts | 128° |
| 2026-05-07 20:24 | 49.93202 | 7.25034 | 1650 ft | 12 kts | 182° |
| 2026-05-07 20:24 | 49.93121 | 7.24983 | 1653 ft | 13 kts | 211° |
| 2026-05-07 20:24 | 49.93093 | 7.24851 | 1652 ft | 16 kts | 291° |
| 2026-05-07 20:24 | 49.93146 | 7.24736 | 1651 ft | 12 kts | 343° |
| 2026-05-07 20:25 | 49.93231 | 7.24776 | 1652 ft | 15 kts | 31° |
| 2026-05-07 20:25 | 49.93342 | 7.24886 | 1650 ft | 27 kts | 33° |
| 2026-05-07 20:25 | 49.93545 | 7.25087 | 1651 ft | 42 kts | 32° |
| 2026-05-07 20:25 | 49.93837 | 7.25375 | 1644 ft | 54 kts | 32° |
| 2026-05-07 20:26 | 49.94154 | 7.25686 | 1643 ft | 53 kts | 32° |
| 2026-05-07 20:26 | 49.94461 | 7.25988 | 1636 ft | 52 kts | 32° |
| 2026-05-07 20:26 | 49.94773 | 7.26293 | 1630 ft | 53 kts | 32° |
| 2026-05-07 20:26 | 49.95027 | 7.26542 | 1630 ft | 23 kts | 32° |
| 2026-05-07 20:27 | 49.95109 | 7.26652 | 1626 ft | 12 kts | 91° |
| 2026-05-07 20:27 | 49.95049 | 7.26723 | 1625 ft | 10 kts | 170° |
| 2026-05-07 20:27 | 49.94982 | 7.26737 | 1623 ft | 9 kts | 162° |
| 2026-05-07 20:27 | 49.94935 | 7.26794 | 1629 ft | 9 kts | 129° |
| 2026-05-07 20:28 | 49.94922 | 7.26900 | 1625 ft | 12 kts | 60° |
| 2026-05-07 20:28 | 49.95004 | 7.27000 | 1629 ft | 18 kts | 32° |
| 2026-05-07 20:28 | 49.95126 | 7.27119 | 1620 ft | 23 kts | 32° |
| 2026-05-07 20:28 | 49.95213 | 7.27206 | 1621 ft | 10 kts | 33° |
| 2026-05-07 20:29 | 49.95238 | 7.27237 | 1618 ft | 3 kts | 66° |
| 2026-05-07 20:29 | 49.95236 | 7.27288 | 1619 ft | 7 kts | 108° |
| 2026-05-07 20:29 | 49.95215 | 7.27356 | 1609 ft | 4 kts | 120° |
| 2026-05-07 20:29 | 49.95209 | 7.27371 | 1606 ft | 0 kts | 121° |